Time;durP1;ratioP1;P1;durP2;ratioP2;P2;SDS_P1;SDS_P2;PMS_P1;PMS_P2;Temp;Humidity;BMP_temperature;BMP_pressure;BME280_temperature;BME280_humidity;BME280_pressure;Samples;Min_cycle;Max_cycle;Signal;HPM_P1;HPM_P2
2023/02/12 00:01:38;;;;;;;0.10;0.10;;;10.80;94.70;;;;;;5050966;28;20029;-75
2023/02/12 00:04:04;;;;;;;0.10;0.10;;;10.80;94.70;;;;;;5049480;28;20436;-75
2023/02/12 00:06:30;;;;;;;0.00;0.00;;;10.80;94.70;;;;;;5049341;28;20025;-74
2023/02/12 00:08:56;;;;;;;0.00;0.00;;;10.80;94.60;;;;;;5049584;28;20132;-74
2023/02/12 00:11:25;;;;;;;0.00;0.00;;;10.80;94.60;;;;;;5032948;28;20029;-74
2023/02/12 00:13:51;;;;;;;0.00;0.00;;;10.80;94.60;;;;;;5049959;28;20074;-74
2023/02/12 00:16:20;;;;;;;0.00;0.00;;;10.80;94.60;;;;;;5050820;28;20025;-75
2023/02/12 00:18:46;;;;;;;0.00;0.00;;;10.80;94.60;;;;;;5051010;28;20057;-75
2023/02/12 00:21:16;;;;;;;0.00;0.00;;;10.80;94.60;;;;;;5049582;28;20477;-75
2023/02/12 00:23:41;;;;;;;0.00;0.00;;;10.70;94.50;;;;;;5050439;28;20053;-74
2023/02/12 00:26:10;;;;;;;0.00;0.00;;;10.70;94.50;;;;;;5050563;28;20048;-74
2023/02/12 00:28:36;;;;;;;0.00;0.00;;;10.70;94.60;;;;;;5050584;28;20040;-75
2023/02/12 00:31:11;;;;;;;0.05;0.05;;;10.70;94.60;;;;;;5050320;28;20582;-74
2023/02/12 00:33:37;;;;;;;0.00;0.00;;;10.70;94.60;;;;;;5050585;28;20029;-74
2023/02/12 00:36:03;;;;;;;0.00;0.00;;;10.60;94.60;;;;;;5050501;28;20031;-74
2023/02/12 00:38:28;;;;;;;;;;;10.60;94.60;;;;;;5049621;28;20135;-75
2023/02/12 00:40:54;;;;;;;0.00;0.00;;;10.70;94.60;;;;;;5048776;28;20392;-75
2023/02/12 00:43:20;;;;;;;0.00;0.00;;;10.70;94.50;;;;;;5015775;28;20029;-75
2023/02/12 00:45:46;;;;;;;0.10;0.10;;;10.70;94.50;;;;;;5049957;28;20476;-74
2023/02/12 00:48:12;;;;;;;;;;;10.70;94.60;;;;;;5050486;28;20021;-75
2023/02/12 00:50:39;;;;;;;0.10;0.10;;;10.70;94.60;;;;;;5048734;28;19913;-75
2023/02/12 00:53:06;;;;;;;0.10;0.10;;;10.70;94.60;;;;;;5048624;28;20025;-75
2023/02/12 00:55:32;;;;;;;;;;;10.70;94.60;;;;;;5048972;28;20489;-75
2023/02/12 00:57:57;;;;;;;0.20;0.20;;;10.70;94.60;;;;;;5049786;28;20043;-75
2023/02/12 01:00:23;;;;;;;0.40;0.40;;;10.70;94.60;;;;;;5049790;28;20091;-75
2023/02/12 01:02:49;;;;;;;0.10;0.10;;;10.70;94.60;;;;;;5049108;28;20036;-75
2023/02/12 01:05:15;;;;;;;0.10;0.10;;;10.70;94.60;;;;;;5049703;28;20029;-75
2023/02/12 01:07:41;;;;;;;0.10;0.10;;;10.70;94.60;;;;;;5031636;28;20025;-75
2023/02/12 01:10:07;;;;;;;0.10;0.10;;;10.70;94.60;;;;;;5048388;28;20056;-75
2023/02/12 01:12:33;;;;;;;0.20;0.20;;;10.70;94.60;;;;;;5048016;28;20054;-74
2023/02/12 01:14:59;;;;;;;0.50;0.50;;;10.70;94.60;;;;;;5048178;28;20021;-75
2023/02/12 01:17:25;;;;;;;0.80;0.80;;;10.70;94.60;;;;;;5031624;28;20124;-75
2023/02/12 01:19:50;;;;;;;0.80;0.80;;;10.60;94.60;;;;;;5048150;28;20178;-74
2023/02/12 01:22:16;;;;;;;1.27;1.17;;;10.60;94.70;;;;;;5031535;28;20111;-74
2023/02/12 01:24:42;;;;;;;1.55;1.45;;;10.50;94.60;;;;;;5031290;28;20110;-74
2023/02/12 01:27:07;;;;;;;1.83;1.73;;;10.50;94.60;;;;;;5047945;28;20037;-76
2023/02/12 01:29:33;;;;;;;1.67;1.58;;;10.40;94.60;;;;;;5047835;28;20056;-74
2023/02/12 01:31:59;;;;;;;1.98;1.88;;;10.40;94.60;;;;;;5048307;28;20043;-75
2023/02/12 01:34:24;;;;;;;2.33;2.13;;;10.30;94.60;;;;;;5047835;28;20035;-76
2023/02/12 01:36:50;;;;;;;1.90;1.80;;;10.30;94.70;;;;;;5031464;28;20548;-75
2023/02/12 01:39:16;;;;;;;1.90;1.80;;;10.30;94.70;;;;;;5031427;28;20051;-75
2023/02/12 01:41:44;;;;;;;1.92;1.83;;;10.30;94.70;;;;;;5031286;28;20087;-75
2023/02/12 01:44:15;;;;;;;1.70;1.60;;;10.40;94.70;;;;;;5047618;28;20111;-74
2023/02/12 01:46:43;;;;;;;1.80;1.70;;;10.40;94.70;;;;;;5048765;28;20083;-74
2023/02/12 01:49:23;;;;;;;1.90;1.80;;;10.40;94.70;;;;;;5048600;28;20100;-74
2023/02/12 01:51:52;;;;;;;1.90;1.80;;;10.40;94.70;;;;;;5047600;28;20497;-75
2023/02/12 01:54:20;;;;;;;2.58;2.38;;;10.40;94.60;;;;;;5047449;28;20116;-75
2023/02/12 01:56:46;;;;;;;2.75;2.55;;;10.40;94.60;;;;;;5030586;28;20473;-74
2023/02/12 01:59:12;;;;;;;3.22;3.03;;;10.40;94.60;;;;;;5047385;28;20029;-74
2023/02/12 02:01:38;;;;;;;3.13;2.92;;;10.40;94.60;;;;;;5030758;28;20044;-74
2023/02/12 02:04:09;;;;;;;2.50;2.30;;;10.40;94.60;;;;;;5047376;28;20029;-75
2023/02/12 02:06:55;;;;;;;2.70;2.50;;;10.40;94.60;;;;;;5048613;28;20033;-74
2023/02/12 02:09:21;;;;;;;2.80;2.60;;;10.40;94.60;;;;;;5047166;28;20021;-74
2023/02/12 02:14:33;;;;;;;2.67;2.47;;;10.40;94.70;;;;;;5046726;28;20059;-75
2023/02/12 02:17:27;;;;;;;2.72;2.53;;;10.40;94.60;;;;;;5048459;28;20086;-74
2023/02/12 02:20:04;;;;;;;2.90;2.70;;;10.40;94.60;;;;;;5048199;28;20013;-74
2023/02/12 02:22:43;;;;;;;2.67;2.47;;;10.30;94.60;;;;;;5047091;28;20116;-74
2023/02/12 02:25:24;;;;;;;2.40;2.20;;;10.40;94.60;;;;;;5048343;28;20025;-75
2023/02/12 02:28:01;;;;;;;2.53;2.33;;;10.30;94.60;;;;;;5048234;28;20025;-75
2023/02/12 02:30:39;;;;;;;2.90;2.70;;;10.20;94.70;;;;;;5048096;28;20025;-75
2023/02/12 02:33:40;;;;;;;2.80;2.60;;;10.20;94.70;;;;;;5046924;28;20025;-75
2023/02/12 02:36:33;;;;;;;4.00;3.70;;;10.20;94.70;;;;;;5039054;28;20544;-76
2023/02/12 02:39:24;;;;;;;4.30;4.00;;;10.20;94.60;;;;;;5048083;28;20028;-75
2023/02/12 02:42:07;;;;;;;4.55;4.25;;;10.20;94.70;;;;;;5048169;28;20029;-75
2023/02/12 02:44:51;;;;;;;4.65;4.35;;;10.20;94.70;;;;;;5048053;28;20049;-75
2023/02/12 02:47:39;;;;;;;3.85;3.55;;;10.20;94.70;;;;;;5047994;28;20543;-74
2023/02/12 02:50:10;;;;;;;4.30;4.00;;;10.20;94.60;;;;;;5047423;28;20041;-75
2023/02/12 02:52:44;;;;;;;4.50;4.20;;;10.30;94.60;;;;;;5047794;28;20120;-75
2023/02/12 02:55:13;;;;;;;4.40;4.10;;;10.20;94.60;;;;;;5046628;28;20028;-75
2023/02/12 02:57:51;;;;;;;4.03;3.72;;;10.30;94.60;;;;;;5046379;28;20554;-74
2023/02/12 03:00:46;;;;;;;5.68;5.38;;;10.30;94.60;;;;;;5047867;28;20043;-74
2023/02/12 03:03:23;;;;;;;8.13;7.72;;;10.30;94.60;;;;;;5047680;28;20029;-74
2023/02/12 03:05:51;;;;;;;8.00;7.60;;;10.20;94.60;;;;;;5047379;28;20017;-74
2023/02/12 03:08:24;;;;;;;10.20;9.70;;;10.20;94.60;;;;;;5046364;28;20381;-75
2023/02/12 03:11:13;;;;;;;9.23;8.82;;;10.20;94.70;;;;;;5047811;28;20033;-75
2023/02/12 03:13:58;;;;;;;8.32;7.93;;;10.20;94.70;;;;;;5045802;28;20029;-75
2023/02/12 03:16:40;;;;;;;7.72;7.32;;;10.20;94.60;;;;;;5046408;28;20425;-75
2023/02/12 03:19:06;;;;;;;6.65;6.25;;;10.20;94.70;;;;;;5047512;28;20036;-75
2023/02/12 03:21:45;;;;;;;7.68;7.28;;;10.20;94.70;;;;;;5047516;28;20389;-75
2023/02/12 03:24:41;;;;;;;12.02;11.52;;;10.20;94.70;;;;;;5047625;28;20041;-75
2023/02/12 03:27:23;;;;;;;12.13;11.63;;;10.20;94.70;;;;;;5049925;28;20033;-75
2023/02/12 03:29:49;;;;;;;11.43;10.93;;;10.20;94.70;;;;;;5050381;28;20025;-74
2023/02/12 03:32:56;;;;;;;11.90;11.40;;;10.20;94.70;;;;;;5033762;28;20039;-75
2023/02/12 03:35:22;;;;;;;13.50;12.90;;;10.10;94.60;;;;;;5051420;28;20090;-74
2023/02/12 03:38:02;;;;;;;13.45;12.85;;;10.10;94.60;;;;;;5051463;28;20029;-75
2023/02/12 03:40:31;;;;;;;13.10;12.50;;;10.10;94.70;;;;;;5051603;28;20028;-75
2023/02/12 03:43:16;;;;;;;13.07;12.48;;;10.10;94.70;;;;;;5050258;28;20120;-74
2023/02/12 03:45:49;;;;;;;13.48;12.88;;;10.10;94.70;;;;;;5049884;28;20068;-75
2023/02/12 03:48:29;;;;;;;13.20;12.60;;;10.10;94.70;;;;;;5051254;28;20111;-75
2023/02/12 03:51:03;;;;;;;13.10;12.50;;;10.10;94.70;;;;;;5049833;28;20025;-75
2023/02/12 03:53:30;;;;;;;13.77;13.18;;;10.10;94.70;;;;;;5051285;28;20045;-75
2023/02/12 03:56:01;;;;;;;15.10;14.48;;;10.10;94.70;;;;;;5049995;28;20021;-74
2023/02/12 03:58:31;;;;;;;16.23;15.52;;;10.10;94.70;;;;;;5049659;28;20084;-74
2023/02/12 04:00:57;;;;;;;14.65;14.05;;;10.10;94.70;;;;;;5051036;28;20029;-74
2023/02/12 04:03:23;;;;;;;;;;;10.10;94.70;;;;;;5051788;28;20381;-74
2023/02/12 04:05:50;;;;;;;13.45;12.85;;;10.10;94.70;;;;;;5051054;28;19935;-74
2023/02/12 04:08:16;;;;;;;14.35;13.75;;;10.10;94.60;;;;;;5033001;28;20037;-74
2023/02/12 04:11:05;;;;;;;15.10;14.50;;;10.20;94.60;;;;;;5049387;28;20068;-72
2023/02/12 04:14:16;;;;;;;19.25;18.45;;;10.00;94.60;;;;;;5049323;28;20029;-74
2023/02/12 04:17:03;;;;;;;20.95;20.15;;;10.00;94.60;;;;;;5050614;28;20083;-75
2023/02/12 04:20:33;;;;;;;21.90;21.00;;;10.00;94.60;;;;;;5050900;28;20021;-75
2023/02/12 04:23:33;;;;;;;19.25;18.45;;;10.00;94.60;;;;;;5047975;28;20031;-75
2023/02/12 04:26:21;;;;;;;20.77;19.98;;;10.00;94.60;;;;;;5048014;28;20037;-75
2023/02/12 04:29:17;;;;;;;20.08;19.27;;;9.90;94.60;;;;;;5046162;28;20040;-75
2023/02/12 04:31:49;;;;;;;18.77;17.98;;;9.90;94.60;;;;;;5050536;28;20381;-74
2023/02/12 04:34:24;;;;;;;22.48;21.58;;;9.90;94.60;;;;;;5050426;28;20024;-74
2023/02/12 04:37:18;;;;;;;22.60;21.70;;;9.90;94.70;;;;;;5049316;28;20068;-74
2023/02/12 04:39:45;;;;;;;20.88;20.08;;;9.90;94.70;;;;;;5049800;28;20039;-74
2023/02/12 04:42:10;;;;;;;20.30;19.50;;;9.90;94.70;;;;;;5049261;28;20519;-74
2023/02/12 04:44:41;;;;;;;20.45;19.65;;;9.90;94.70;;;;;;5050692;28;20037;-75
2023/02/12 04:47:07;;;;;;;19.63;18.83;;;9.90;94.90;;;;;;5048996;28;20032;-75
2023/02/12 04:49:33;;;;;;;18.80;18.00;;;9.90;94.70;;;;;;5032240;28;20079;-74
2023/02/12 04:51:58;;;;;;;18.52;17.73;;;9.90;94.70;;;;;;5049989;28;20029;-76
2023/02/12 04:54:24;;;;;;;19.08;18.27;;;9.90;94.70;;;;;;5050251;28;20517;-75
2023/02/12 04:56:50;;;;;;;18.52;17.73;;;9.90;94.70;;;;;;5015668;28;20049;-75
2023/02/12 04:59:16;;;;;;;16.20;15.50;;;10.00;94.70;;;;;;5048639;28;20060;-74
2023/02/12 05:01:43;;;;;;;15.48;14.77;;;10.00;94.70;;;;;;5049982;28;20033;-74
2023/02/12 05:04:13;;;;;;;15.82;15.13;;;10.00;94.60;;;;;;5048815;28;20025;-74
2023/02/12 05:06:40;;;;;;;13.50;12.90;;;10.10;94.60;;;;;;5032210;28;20071;-74
2023/02/12 05:09:07;;;;;;;17.70;17.00;;;10.10;94.60;;;;;;5048627;28;20462;-74
2023/02/12 05:11:33;;;;;;;20.67;19.88;;;10.10;94.60;;;;;;5048443;28;20021;-74
2023/02/12 05:13:58;;;;;;;21.02;20.23;;;10.00;94.60;;;;;;5048636;28;20381;-74
2023/02/12 05:16:24;;;;;;;23.73;22.83;;;10.00;94.60;;;;;;5049766;28;20025;-74
2023/02/12 05:18:50;;;;;;;26.05;25.05;;;9.90;94.60;;;;;;5049624;28;20033;-74
2023/02/12 05:21:16;;;;;;;27.90;26.80;;;9.80;94.70;;;;;;5031777;28;20054;-74
2023/02/12 05:23:42;;;;;;;28.80;27.70;;;9.80;94.70;;;;;;5049595;28;20540;-74
2023/02/12 05:26:13;;;;;;;25.40;24.40;;;9.80;94.70;;;;;;5049493;28;20059;-74
2023/02/12 05:28:39;;;;;;;26.52;25.52;;;9.80;94.70;;;;;;5048080;28;20029;-75
2023/02/12 05:31:08;;;;;;;;;;;9.80;94.80;;;;;;5048384;28;20545;-74
2023/02/12 05:33:33;;;;;;;23.52;22.63;;;9.80;94.60;;;;;;5048151;28;19905;-73
2023/02/12 05:36:11;;;;;;;24.00;23.10;;;9.70;94.70;;;;;;5031593;28;20032;-74
2023/02/12 05:38:37;;;;;;;23.33;22.42;;;9.70;94.70;;;;;;5047709;28;20078;-74
2023/02/12 05:41:05;;;;;;;23.60;22.70;;;9.70;94.70;;;;;;5047916;28;20021;-74
2023/02/12 05:43:31;;;;;;;21.10;20.30;;;9.70;94.70;;;;;;5049235;28;20106;-74
2023/02/12 05:46:01;;;;;;;22.00;21.10;;;9.70;94.80;;;;;;5048983;28;20048;-74
2023/02/12 05:48:28;;;;;;;20.25;19.45;;;9.70;94.80;;;;;;5047740;28;20202;-74
2023/02/12 05:50:53;;;;;;;24.05;23.15;;;9.70;94.80;;;;;;5048375;28;20416;-74
2023/02/12 05:53:19;;;;;;;23.52;22.63;;;9.70;94.80;;;;;;5047660;28;20029;-74
2023/02/12 05:55:45;;;;;;;25.13;24.13;;;9.70;94.70;;;;;;5030943;28;20041;-74
2023/02/12 05:58:11;;;;;;;23.55;22.65;;;9.70;94.70;;;;;;5048806;28;20049;-74
2023/02/12 06:00:37;;;;;;;20.40;19.60;;;9.70;94.70;;;;;;5048631;28;20476;-74
2023/02/12 06:03:03;;;;;;;21.00;20.20;;;9.70;94.70;;;;;;5047374;28;20500;-74
2023/02/12 06:05:28;;;;;;;16.58;15.88;;;9.70;94.70;;;;;;5047239;28;20021;-74
2023/02/12 06:07:54;;;;;;;15.10;14.48;;;9.70;94.70;;;;;;5014332;28;20098;-74
2023/02/12 06:10:20;;;;;;;15.90;15.20;;;9.70;94.80;;;;;;5031011;28;20474;-75
2023/02/12 06:12:45;;;;;;;15.63;14.93;;;9.80;94.80;;;;;;5048243;28;20041;-74
2023/02/12 06:15:11;;;;;;;14.60;14.00;;;9.80;94.70;;;;;;5030439;28;20469;-74
2023/02/12 06:17:37;;;;;;;14.90;14.30;;;9.90;94.70;;;;;;5047159;28;20240;-74
2023/02/12 06:20:03;;;;;;;12.60;12.00;;;9.90;94.70;;;;;;5048283;28;20060;-74
2023/02/12 06:22:29;;;;;;;12.10;11.60;;;10.00;94.60;;;;;;5047000;28;20033;-74
2023/02/12 06:24:54;;;;;;;12.93;12.32;;;10.00;94.60;;;;;;5046957;28;20036;-75
2023/02/12 06:27:20;;;;;;;11.05;10.55;;;10.10;94.60;;;;;;5048073;28;20506;-74
2023/02/12 06:29:46;;;;;;;11.30;10.80;;;10.10;94.60;;;;;;5048415;28;20132;-74
2023/02/12 06:32:12;;;;;;;12.82;12.23;;;10.20;94.60;;;;;;5046933;28;20040;-74
2023/02/12 06:34:39;;;;;;;10.38;9.88;;;10.20;94.60;;;;;;5030315;28;20447;-74
2023/02/12 06:37:05;;;;;;;10.10;9.60;;;10.20;94.50;;;;;;5048061;28;20025;-74
2023/02/12 06:39:30;;;;;;;9.75;9.25;;;10.20;94.50;;;;;;5046817;28;20481;-75
2023/02/12 06:41:56;;;;;;;8.30;7.90;;;10.10;94.60;;;;;;5046720;28;20044;-74
2023/02/12 06:44:22;;;;;;;8.57;8.18;;;10.10;94.60;;;;;;5030307;28;20112;-74
2023/02/12 06:46:47;;;;;;;9.20;8.80;;;10.10;94.60;;;;;;5030251;28;20406;-74
2023/02/12 06:49:13;;;;;;;9.32;8.88;;;10.20;94.60;;;;;;5030229;28;20033;-74
2023/02/12 06:51:40;;;;;;;9.23;8.82;;;10.10;94.60;;;;;;5046530;28;20044;-74
2023/02/12 06:54:11;;;;;;;;;;;10.10;94.60;;;;;;5047069;28;20035;-74
2023/02/12 06:56:36;;;;;;;10.10;9.60;;;10.10;94.50;;;;;;5047662;28;19917;-74
2023/02/12 06:59:02;;;;;;;8.93;8.52;;;10.10;94.50;;;;;;5046829;28;20026;-74
2023/02/12 07:01:29;;;;;;;9.27;8.85;;;10.10;94.50;;;;;;5047444;28;20048;-74
2023/02/12 07:04:01;;;;;;;9.60;9.10;;;10.10;94.60;;;;;;5047695;28;20074;-74
2023/02/12 07:06:28;;;;;;;9.60;9.10;;;10.00;94.60;;;;;;5047808;28;20117;-74
2023/02/12 07:08:55;;;;;;;8.77;8.38;;;10.00;94.60;;;;;;5046455;28;20123;-74
2023/02/12 07:11:26;;;;;;;7.30;6.90;;;10.00;94.60;;;;;;5046355;28;20420;-74
2023/02/12 07:13:52;;;;;;;8.55;8.15;;;10.10;94.60;;;;;;5046164;28;20393;-74
2023/02/12 07:16:18;;;;;;;8.82;8.43;;;10.10;94.60;;;;;;5047394;28;20027;-74
2023/02/12 07:18:44;;;;;;;7.47;7.07;;;10.10;94.60;;;;;;5046207;28;20502;-74
2023/02/12 07:21:11;;;;;;;7.05;6.65;;;10.10;94.60;;;;;;5047656;28;20104;-74
2023/02/12 07:23:37;;;;;;;7.40;7.00;;;10.10;94.60;;;;;;5047563;28;20035;-75
2023/02/12 07:26:06;;;;;;;7.53;7.13;;;10.10;94.60;;;;;;5046441;28;20109;-73
2023/02/12 07:28:32;;;;;;;7.40;7.00;;;10.10;94.60;;;;;;5046255;28;20115;-75
2023/02/12 07:30:59;;;;;;;8.40;8.00;;;10.10;94.50;;;;;;5046213;28;20040;-75
2023/02/12 07:33:25;;;;;;;7.00;6.60;;;10.10;94.50;;;;;;5047468;28;20045;-75
2023/02/12 07:35:50;;;;;;;7.00;6.60;;;10.10;94.50;;;;;;5046123;28;20041;-75
2023/02/12 07:38:16;;;;;;;7.80;7.40;;;10.10;94.50;;;;;;5029811;28;20060;-75
2023/02/12 07:40:42;;;;;;;7.10;6.70;;;10.00;94.50;;;;;;5046128;28;20025;-74
2023/02/12 07:43:07;;;;;;;7.93;7.53;;;10.10;94.50;;;;;;5013383;28;20029;-74
2023/02/12 07:45:33;;;;;;;7.80;7.40;;;10.10;94.60;;;;;;5046377;28;20021;-75
2023/02/12 07:47:59;;;;;;;8.20;7.80;;;10.10;94.50;;;;;;5046315;28;20028;-75
2023/02/12 07:50:24;;;;;;;9.00;8.60;;;10.10;94.50;;;;;;5046169;28;20033;-75
2023/02/12 07:52:50;;;;;;;8.82;8.43;;;10.10;94.50;;;;;;5046222;28;20047;-75
2023/02/12 07:55:16;;;;;;;8.73;8.32;;;10.10;94.50;;;;;;5047569;28;20029;-74
2023/02/12 07:57:42;;;;;;;9.80;9.30;;;10.10;94.50;;;;;;5047319;28;20143;-74
2023/02/12 08:00:09;;;;;;;9.15;8.75;;;10.10;94.50;;;;;;5046001;28;20048;-73
2023/02/12 08:02:35;;;;;;;8.73;8.32;;;10.00;94.50;;;;;;5045734;28;20040;-74
2023/02/12 08:05:00;;;;;;;8.63;8.23;;;10.00;94.50;;;;;;5045824;28;20029;-74
2023/02/12 08:07:26;;;;;;;8.23;7.82;;;10.00;94.50;;;;;;5012829;28;20409;-74
2023/02/12 08:09:52;;;;;;;8.38;7.97;;;10.00;94.50;;;;;;5045709;28;20068;-74
2023/02/12 08:12:18;;;;;;;7.82;7.43;;;10.10;94.50;;;;;;5045978;28;20033;-75
2023/02/12 08:14:44;;;;;;;7.53;7.13;;;10.10;94.50;;;;;;5050562;28;20079;-74
2023/02/12 08:17:10;;;;;;;8.68;8.27;;;10.10;94.50;;;;;;5049223;28;20398;-74
2023/02/12 08:19:36;;;;;;;8.23;7.82;;;10.10;94.60;;;;;;5050636;28;20029;-76
2023/02/12 08:22:03;;;;;;;7.65;7.25;;;10.10;94.80;;;;;;5049458;28;20045;-75
2023/02/12 08:24:29;;;;;;;7.00;6.60;;;10.10;94.60;;;;;;5050529;28;20029;-75
2023/02/12 08:26:55;;;;;;;6.60;6.20;;;10.10;94.60;;;;;;5050615;28;20033;-76
2023/02/12 08:29:28;;;;;;;6.95;6.55;;;10.10;94.60;;;;;;5050587;28;20041;-75
2023/02/12 08:32:01;;;;;;;6.93;6.53;;;10.10;94.60;;;;;;5048901;28;20032;-75
2023/02/12 08:34:32;;;;;;;6.85;6.45;;;10.10;94.60;;;;;;5049118;28;20036;-75
2023/02/12 08:36:59;;;;;;;5.78;5.47;;;10.20;94.60;;;;;;5049026;28;20051;-75
2023/02/12 08:39:27;;;;;;;5.65;5.35;;;10.20;94.60;;;;;;5050761;28;20112;-76
2023/02/12 08:41:54;;;;;;;5.45;5.15;;;10.30;94.60;;;;;;5048979;28;20032;-75
2023/02/12 08:44:20;;;;;;;4.70;4.40;;;10.30;94.50;;;;;;5050021;28;20111;-75
2023/02/12 08:46:49;;;;;;;4.95;4.65;;;10.30;94.80;;;;;;5032387;28;20132;-75
2023/02/12 08:49:20;;;;;;;5.07;4.78;;;10.30;94.60;;;;;;5050438;28;20504;-75
2023/02/12 08:51:48;;;;;;;5.30;5.00;;;10.30;94.60;;;;;;5049140;28;20064;-76
2023/02/12 08:54:20;;;;;;;5.40;5.10;;;10.40;94.60;;;;;;5050069;28;20024;-75
2023/02/12 08:56:46;;;;;;;5.55;5.25;;;10.40;94.60;;;;;;5048305;28;20037;-75
2023/02/12 08:59:13;;;;;;;5.22;4.93;;;10.50;94.60;;;;;;5049676;28;20029;-75
2023/02/12 09:01:42;;;;;;;4.70;4.40;;;10.50;94.60;;;;;;5048174;28;20488;-76
2023/02/12 09:04:27;;;;;;;5.22;4.93;;;10.50;94.60;;;;;;5049396;28;20029;-75
2023/02/12 09:06:53;;;;;;;4.60;4.30;;;10.50;94.60;;;;;;5048256;28;20216;-75
2023/02/12 09:09:19;;;;;;;4.43;4.13;;;10.50;94.60;;;;;;5047994;28;20029;-75
2023/02/12 09:11:45;;;;;;;4.40;4.10;;;10.60;94.60;;;;;;5031311;28;20032;-76
2023/02/12 09:14:13;;;;;;;;;;;10.60;94.60;;;;;;5048624;28;20029;-76
2023/02/12 09:16:39;;;;;;;4.25;3.95;;;10.60;94.60;;;;;;5049476;28;20061;-77
2023/02/12 09:19:05;;;;;;;4.35;4.05;;;10.70;94.60;;;;;;5049352;28;20371;-77
2023/02/12 09:21:31;;;;;;;3.90;3.60;;;10.70;94.50;;;;;;5048011;28;20039;-77
2023/02/12 09:23:57;;;;;;;3.97;3.67;;;10.70;94.60;;;;;;5048209;28;20067;-74
2023/02/12 09:26:27;;;;;;;4.03;3.72;;;10.70;94.60;;;;;;5047925;28;20060;-74
2023/02/12 09:28:54;;;;;;;4.00;3.70;;;10.80;94.60;;;;;;5047939;28;20389;-70
2023/02/12 09:31:25;;;;;;;3.50;3.20;;;10.80;94.60;;;;;;5049244;28;20120;-74
2023/02/12 09:33:52;;;;;;;3.17;2.97;;;10.90;94.70;;;;;;5049001;28;20114;-75
2023/02/12 09:36:18;;;;;;;2.80;2.60;;;10.90;94.70;;;;;;5048382;28;20032;-74
2023/02/12 09:38:44;;;;;;;2.47;2.28;;;10.90;94.70;;;;;;5049308;28;20103;-75
2023/02/12 09:41:28;;;;;;;2.42;2.22;;;11.00;94.80;;;;;;5030992;28;20474;-75
2023/02/12 09:44:10;;;;;;;2.20;2.00;;;11.10;94.80;;;;;;5048894;28;20029;-74
2023/02/12 09:46:35;;;;;;;1.73;1.63;;;11.30;94.90;;;;;;5048955;28;20035;-74
2023/02/12 09:49:16;;;;;;;1.50;1.40;;;11.40;94.90;;;;;;5047370;28;20116;-74
2023/02/12 09:51:47;;;;;;;1.35;1.25;;;11.50;94.80;;;;;;5047170;28;20029;-74
2023/02/12 09:54:17;;;;;;;0.80;0.80;;;11.60;94.80;;;;;;5048307;28;20043;-74
2023/02/12 09:56:48;;;;;;;0.20;0.20;;;11.90;95.10;;;;;;5047088;28;20481;-75
2023/02/12 09:59:37;;;;;;;0.10;0.10;;;12.10;95.00;;;;;;5048394;28;20025;-75
2023/02/12 10:02:15;;;;;;;0.10;0.10;;;12.40;95.00;;;;;;5048247;28;20191;-75
2023/02/12 10:04:42;;;;;;;0.10;0.10;;;12.50;94.90;;;;;;5048252;28;20028;-75
2023/02/12 10:07:29;;;;;;;0.10;0.10;;;12.70;95.20;;;;;;5047213;28;20416;-76
2023/02/12 10:10:13;;;;;;;;;;;13.10;95.40;;;;;;5049042;28;20032;-75
2023/02/12 10:13:25;;;;;;;0.00;0.00;;;13.40;95.20;;;;;;5048408;28;19909;-75
2023/02/12 10:16:02;;;;;;;0.00;0.00;;;13.60;95.00;;;;;;5048697;28;20086;-75
2023/02/12 10:19:05;;;;;;;0.00;0.00;;;13.80;95.10;;;;;;5048445;28;20358;-75
2023/02/12 10:21:48;;;;;;;0.00;0.00;;;13.90;94.90;;;;;;5040538;28;20091;-74
2023/02/12 10:24:17;;;;;;;0.00;0.00;;;13.80;94.90;;;;;;5048430;28;20036;-74
2023/02/12 10:26:48;;;;;;;0.00;0.00;;;13.80;94.80;;;;;;5048601;28;20036;-75
2023/02/12 10:29:19;;;;;;;0.00;0.00;;;13.70;94.70;;;;;;5048202;28;20028;-75
2023/02/12 10:31:51;;;;;;;0.00;0.00;;;13.60;94.90;;;;;;5048252;28;20025;-75
2023/02/12 10:34:24;;;;;;;0.00;0.00;;;13.60;94.80;;;;;;5046772;28;20021;-76
2023/02/12 10:36:54;;;;;;;0.00;0.00;;;13.60;95.00;;;;;;5047128;28;20055;-75
2023/02/12 10:39:26;;;;;;;0.00;0.00;;;13.60;94.90;;;;;;5047925;28;20032;-75
2023/02/12 10:42:09;;;;;;;0.10;0.08;;;13.60;94.90;;;;;;5046412;28;20021;-75
2023/02/12 10:44:35;;;;;;;0.00;0.00;;;13.50;94.80;;;;;;5046820;28;20025;-75
2023/02/12 10:47:01;;;;;;;0.00;0.00;;;13.50;94.80;;;;;;5046404;28;20436;-76
2023/02/12 10:49:31;;;;;;;0.00;0.00;;;13.50;94.80;;;;;;5047612;28;20029;-75
2023/02/12 10:52:02;;;;;;;0.00;0.00;;;13.40;94.80;;;;;;5029572;28;20482;-75
2023/02/12 10:54:43;;;;;;;0.00;0.00;;;13.70;95.90;;;;;;5047577;28;20116;-76
2023/02/12 10:57:21;;;;;;;0.00;0.00;;;14.20;95.70;;;;;;5047799;28;20045;-75
2023/02/12 10:59:50;;;;;;;0.00;0.00;;;14.40;95.20;;;;;;5045795;28;20024;-76
2023/02/12 11:02:33;;;;;;;0.00;0.00;;;14.30;95.00;;;;;;5046080;28;20508;-75
2023/02/12 11:05:19;;;;;;;0.00;0.00;;;14.00;95.00;;;;;;5029799;28;20498;-74
2023/02/12 11:07:50;;;;;;;0.00;0.00;;;14.40;96.20;;;;;;5047403;28;20053;-75
2023/02/12 11:10:51;;;;;;;0.00;0.00;;;15.40;96.40;;;;;;5049023;28;20036;-76
2023/02/12 11:13:27;;;;;;;0.00;0.00;;;16.20;96.10;;;;;;5045613;28;20060;-76
2023/02/12 11:15:54;;;;;;;0.00;0.00;;;16.30;95.30;;;;;;5043284;28;20448;-76
2023/02/12 11:18:25;;;;;;;0.08;0.08;;;16.10;95.00;;;;;;5045834;28;20387;-76
2023/02/12 11:21:01;;;;;;;0.25;0.20;;;15.80;95.00;;;;;;5046219;28;20112;-76
2023/02/12 11:23:31;;;;;;;0.00;0.00;;;15.40;95.00;;;;;;5046698;28;20032;-74
2023/02/12 11:25:59;;;;;;;0.00;0.00;;;15.10;94.90;;;;;;5046804;28;20073;-75
2023/02/12 11:28:25;;;;;;;0.00;0.00;;;14.80;94.90;;;;;;5047152;28;20036;-75
2023/02/12 11:30:55;;;;;;;0.00;0.00;;;14.60;95.00;;;;;;5047273;28;20444;-75
2023/02/12 11:33:30;;;;;;;0.00;0.00;;;14.60;95.40;;;;;;5046112;28;20025;-75
2023/02/12 11:35:58;;;;;;;0.00;0.00;;;15.20;96.30;;;;;;5045173;28;20078;-75
2023/02/12 11:38:33;;;;;;;0.00;0.00;;;16.00;96.20;;;;;;5045465;28;20477;-76
2023/02/12 11:41:03;;;;;;;0.00;0.00;;;16.40;95.60;;;;;;5047373;28;20033;-76
2023/02/12 11:43:30;;;;;;;0.00;0.00;;;16.20;95.00;;;;;;5046953;28;20126;-75
2023/02/12 11:45:58;;;;;;;0.00;0.00;;;16.60;96.00;;;;;;5045519;28;20037;-76
2023/02/12 11:48:38;;;;;;;0.00;0.00;;;17.20;96.10;;;;;;5048633;28;20064;-76
2023/02/12 11:51:07;;;;;;;0.00;0.00;;;17.20;95.30;;;;;;5049361;28;20061;-75
2023/02/12 11:53:41;;;;;;;0.00;0.00;;;16.80;95.20;;;;;;5050927;28;20537;-76
2023/02/12 11:56:11;;;;;;;0.00;0.00;;;16.50;95.30;;;;;;5049112;28;20029;-76
2023/02/12 11:58:38;;;;;;;0.00;0.00;;;16.70;96.30;;;;;;5050827;28;20059;-76
2023/02/12 12:01:07;;;;;;;0.00;0.00;;;17.40;96.60;;;;;;5048655;28;20201;-76
2023/02/12 12:03:39;;;;;;;0.00;0.00;;;17.70;95.80;;;;;;5049336;28;20036;-75
2023/02/12 12:06:15;;;;;;;0.00;0.00;;;17.70;95.80;;;;;;5050099;28;20029;-76
2023/02/12 12:08:47;;;;;;;0.00;0.00;;;18.10;96.20;;;;;;5049399;28;20025;-76
2023/02/12 12:11:46;;;;;;;0.00;0.00;;;18.60;96.50;;;;;;5050317;28;20033;-76
2023/02/12 12:14:28;;;;;;;0.00;0.00;;;19.20;96.70;;;;;;5048765;28;20052;-75
2023/02/12 12:20:14;;;;;;;0.00;0.00;;;19.60;96.30;;;;;;5050869;28;20435;-77
2023/02/12 12:22:51;;;;;;;0.00;0.00;;;19.90;96.30;;;;;;5050212;28;20032;-76
2023/02/12 12:25:29;;;;;;;0.00;0.00;;;20.30;96.60;;;;;;5049786;28;20036;-76
2023/02/12 12:28:12;;;;;;;0.00;0.00;;;21.00;96.60;;;;;;5050287;28;20052;-75
2023/02/12 12:30:55;;;;;;;0.00;0.00;;;21.40;96.20;;;;;;5050096;28;20219;-76
2023/02/12 12:33:35;;;;;;;0.00;0.00;;;21.70;95.90;;;;;;5049634;28;20159;-76
2023/02/12 12:36:12;;;;;;;0.00;0.00;;;21.50;95.80;;;;;;5050000;28;20021;-77
2023/02/12 12:38:54;;;;;;;0.00;0.00;;;21.50;96.40;;;;;;5050208;28;20031;-75
2023/02/12 12:41:49;;;;;;;0.00;0.00;;;21.70;96.30;;;;;;5049645;28;20028;-76
2023/02/12 12:44:57;;;;;;;0.00;0.00;;;21.60;95.90;;;;;;5048564;28;20041;-75
2023/02/12 12:48:03;;;;;;;0.00;0.00;;;21.50;96.00;;;;;;5051133;28;20075;-76
2023/02/12 12:50:53;;;;;;;0.00;0.00;;;21.20;95.80;;;;;;5047538;28;20036;-73
2023/02/12 12:53:33;;;;;;;0.00;0.00;;;20.60;95.70;;;;;;5049248;28;20040;-76
2023/02/12 12:56:33;;;;;;;0.00;0.00;;;19.70;95.00;;;;;;5049416;28;20486;-75
2023/02/12 12:59:36;;;;;;;0.00;0.00;;;18.50;94.90;;;;;;5047360;28;20045;-75
2023/02/12 13:02:38;;;;;;;0.08;0.08;;;17.40;95.20;;;;;;5048121;28;20035;-75
2023/02/12 13:05:18;;;;;;;0.00;0.00;;;16.60;95.50;;;;;;5029434;28;20020;-76
2023/02/12 13:07:50;;;;;;;0.00;0.00;;;16.00;95.40;;;;;;5045259;28;20033;-76
2023/02/12 13:10:25;;;;;;;0.00;0.00;;;15.40;95.40;;;;;;5047769;28;20504;-75
2023/02/12 13:13:05;;;;;;;0.00;0.00;;;15.00;95.70;;;;;;5048675;28;20053;-76
2023/02/12 13:15:58;;;;;;;0.00;0.00;;;14.80;95.70;;;;;;5047779;28;20365;-76
2023/02/12 13:18:45;;;;;;;0.00;0.00;;;14.50;95.50;;;;;;5049515;28;20312;-75